sensor_id;sensor_type;location;lat;lon;timestamp;pressure;altitude;pressure_sealevel;temperature;humidity
42601;BME280;28229;48.856;9.088;2022-09-17T00:01:57;97601.88;;;9.26;88.20
42601;BME280;28229;48.856;9.088;2022-09-17T00:04:23;97600.91;;;9.20;88.92
42601;BME280;28229;48.856;9.088;2022-09-17T00:06:48;97601.06;;;9.25;88.23
42601;BME280;28229;48.856;9.088;2022-09-17T00:09:14;97601.97;;;9.12;89.24
42601;BME280;28229;48.856;9.088;2022-09-17T00:11:42;97600.75;;;9.15;89.83
42601;BME280;28229;48.856;9.088;2022-09-17T00:14:12;97606.84;;;9.09;90.16
42601;BME280;28229;48.856;9.088;2022-09-17T00:16:41;97594.00;;;9.26;89.04
42601;BME280;28229;48.856;9.088;2022-09-17T00:19:13;97587.13;;;9.25;88.49
42601;BME280;28229;48.856;9.088;2022-09-17T00:21:40;97593.78;;;9.27;88.06
42601;BME280;28229;48.856;9.088;2022-09-17T00:24:06;97594.00;;;9.26;87.67
42601;BME280;28229;48.856;9.088;2022-09-17T00:26:33;97589.31;;;9.28;87.94
42601;BME280;28229;48.856;9.088;2022-09-17T00:29:00;97588.91;;;9.31;88.01
42601;BME280;28229;48.856;9.088;2022-09-17T00:31:26;97592.69;;;9.35;88.17
42601;BME280;28229;48.856;9.088;2022-09-17T00:33:53;97585.59;;;9.36;87.94
42601;BME280;28229;48.856;9.088;2022-09-17T00:36:20;97586.13;;;9.26;89.25
42601;BME280;28229;48.856;9.088;2022-09-17T00:38:50;97596.63;;;9.26;89.17
42601;BME280;28229;48.856;9.088;2022-09-17T00:41:16;97595.81;;;9.25;88.96
42601;BME280;28229;48.856;9.088;2022-09-17T00:43:45;97599.41;;;9.31;88.66
42601;BME280;28229;48.856;9.088;2022-09-17T00:46:42;97601.59;;;9.34;88.19
42601;BME280;28229;48.856;9.088;2022-09-17T00:49:13;97599.03;;;9.27;89.02
42601;BME280;28229;48.856;9.088;2022-09-17T00:52:21;97599.25;;;9.26;89.15
42601;BME280;28229;48.856;9.088;2022-09-17T00:54:42;97599.50;;;9.18;89.42
42601;BME280;28229;48.856;9.088;2022-09-17T00:57:10;97598.66;;;9.24;89.35
42601;BME280;28229;48.856;9.088;2022-09-17T00:59:36;97600.81;;;9.08;89.80
42601;BME280;28229;48.856;9.088;2022-09-17T01:02:03;97603.84;;;9.05;90.23
42601;BME280;28229;48.856;9.088;2022-09-17T01:04:29;97600.22;;;9.06;90.27
42601;BME280;28229;48.856;9.088;2022-09-17T01:07:05;97613.94;;;9.08;90.18
42601;BME280;28229;48.856;9.088;2022-09-17T01:09:45;97612.56;;;9.06;89.93
42601;BME280;28229;48.856;9.088;2022-09-17T01:17:55;97611.84;;;8.92;90.99
42601;BME280;28229;48.856;9.088;2022-09-17T01:21:06;97616.44;;;8.96;90.79
42601;BME280;28229;48.856;9.088;2022-09-17T01:29:36;97621.81;;;9.08;90.50
42601;BME280;28229;48.856;9.088;2022-09-17T01:32:10;97627.09;;;9.02;90.43
42601;BME280;28229;48.856;9.088;2022-09-17T01:35:10;97623.53;;;8.96;92.10
42601;BME280;28229;48.856;9.088;2022-09-17T01:37:56;97624.72;;;9.00;91.96
42601;BME280;28229;48.856;9.088;2022-09-17T01:43:09;97627.94;;;9.02;92.04
42601;BME280;28229;48.856;9.088;2022-09-17T01:45:48;97633.75;;;9.04;92.04
42601;BME280;28229;48.856;9.088;2022-09-17T01:48:17;97629.47;;;9.10;91.74
42601;BME280;28229;48.856;9.088;2022-09-17T01:51:09;97623.84;;;9.06;91.33
42601;BME280;28229;48.856;9.088;2022-09-17T01:54:01;97629.84;;;9.13;91.02
42601;BME280;28229;48.856;9.088;2022-09-17T01:56:33;97619.72;;;9.17;90.17
42601;BME280;28229;48.856;9.088;2022-09-17T01:59:06;97629.09;;;9.06;90.11
42601;BME280;28229;48.856;9.088;2022-09-17T02:01:36;97625.13;;;8.97;90.91
42601;BME280;28229;48.856;9.088;2022-09-17T02:04:07;97624.44;;;9.08;90.00
42601;BME280;28229;48.856;9.088;2022-09-17T02:06:37;97622.84;;;9.07;89.67
42601;BME280;28229;48.856;9.088;2022-09-17T02:09:22;97631.28;;;9.09;88.98
42601;BME280;28229;48.856;9.088;2022-09-17T02:11:53;97630.59;;;8.95;89.66
42601;BME280;28229;48.856;9.088;2022-09-17T02:14:25;97635.63;;;8.97;89.90
42601;BME280;28229;48.856;9.088;2022-09-17T02:16:58;97629.50;;;9.03;89.59
42601;BME280;28229;48.856;9.088;2022-09-17T02:19:28;97635.03;;;8.95;89.81
42601;BME280;28229;48.856;9.088;2022-09-17T02:25:07;97628.69;;;9.09;89.16
42601;BME280;28229;48.856;9.088;2022-09-17T02:30:08;97625.88;;;9.04;89.67
42601;BME280;28229;48.856;9.088;2022-09-17T02:32:33;97629.97;;;9.00;89.92
42601;BME280;28229;48.856;9.088;2022-09-17T02:34:59;97631.97;;;8.98;90.50
42601;BME280;28229;48.856;9.088;2022-09-17T02:37:25;97628.94;;;9.01;90.47
42601;BME280;28229;48.856;9.088;2022-09-17T02:39:52;97627.06;;;9.08;89.75
42601;BME280;28229;48.856;9.088;2022-09-17T02:45:35;97617.44;;;9.02;89.36
42601;BME280;28229;48.856;9.088;2022-09-17T02:54:00;97619.88;;;8.97;90.12
42601;BME280;28229;48.856;9.088;2022-09-17T02:56:45;97609.59;;;8.95;89.88
42601;BME280;28229;48.856;9.088;2022-09-17T02:59:31;97617.06;;;8.99;89.16
42601;BME280;28229;48.856;9.088;2022-09-17T03:02:09;97625.81;;;8.86;89.80
42601;BME280;28229;48.856;9.088;2022-09-17T03:04:38;97621.75;;;8.90;89.39
42601;BME280;28229;48.856;9.088;2022-09-17T03:07:08;97614.72;;;8.84;89.56
42601;BME280;28229;48.856;9.088;2022-09-17T03:09:36;97617.25;;;8.72;90.12
42601;BME280;28229;48.856;9.088;2022-09-17T03:12:03;97609.19;;;8.73;89.91
42601;BME280;28229;48.856;9.088;2022-09-17T03:14:29;97612.69;;;8.61;90.50
42601;BME280;28229;48.856;9.088;2022-09-17T03:16:55;97616.38;;;8.53;91.16
42601;BME280;28229;48.856;9.088;2022-09-17T03:19:21;97604.53;;;8.44;92.64
42601;BME280;28229;48.856;9.088;2022-09-17T03:21:47;97612.28;;;8.57;90.89
42601;BME280;28229;48.856;9.088;2022-09-17T03:24:13;97616.28;;;8.66;90.83
42601;BME280;28229;48.856;9.088;2022-09-17T03:26:38;97614.34;;;8.55;92.08
42601;BME280;28229;48.856;9.088;2022-09-17T03:29:04;97611.72;;;8.55;92.54
42601;BME280;28229;48.856;9.088;2022-09-17T03:31:30;97606.88;;;8.52;91.94
42601;BME280;28229;48.856;9.088;2022-09-17T03:33:56;97604.81;;;8.61;91.61
42601;BME280;28229;48.856;9.088;2022-09-17T03:36:23;97610.56;;;8.44;93.08
42601;BME280;28229;48.856;9.088;2022-09-17T03:38:54;97616.19;;;8.41;92.56
42601;BME280;28229;48.856;9.088;2022-09-17T03:41:20;97616.19;;;8.41;92.54
42601;BME280;28229;48.856;9.088;2022-09-17T03:43:46;97613.56;;;8.41;93.14
42601;BME280;28229;48.856;9.088;2022-09-17T03:46:12;97618.69;;;8.29;92.96
42601;BME280;28229;48.856;9.088;2022-09-17T03:48:38;97627.91;;;8.38;92.63
42601;BME280;28229;48.856;9.088;2022-09-17T03:51:05;97632.00;;;8.28;93.49
42601;BME280;28229;48.856;9.088;2022-09-17T03:53:31;97632.81;;;8.28;93.28
42601;BME280;28229;48.856;9.088;2022-09-17T03:56:01;97636.19;;;8.35;92.16
42601;BME280;28229;48.856;9.088;2022-09-17T03:58:29;97636.22;;;8.29;91.92
42601;BME280;28229;48.856;9.088;2022-09-17T04:00:55;97646.09;;;8.33;92.26
42601;BME280;28229;48.856;9.088;2022-09-17T04:03:24;97646.50;;;8.30;91.94
42601;BME280;28229;48.856;9.088;2022-09-17T04:05:50;97645.91;;;8.28;92.46
42601;BME280;28229;48.856;9.088;2022-09-17T04:08:16;97644.91;;;8.29;92.51
42601;BME280;28229;48.856;9.088;2022-09-17T04:10:43;97636.47;;;8.20;92.79
42601;BME280;28229;48.856;9.088;2022-09-17T04:13:09;97644.47;;;8.32;92.00
42601;BME280;28229;48.856;9.088;2022-09-17T04:15:36;97643.66;;;8.38;91.12
42601;BME280;28229;48.856;9.088;2022-09-17T04:18:02;97643.47;;;8.33;90.89
42601;BME280;28229;48.856;9.088;2022-09-17T04:20:28;97641.69;;;8.27;91.88
42601;BME280;28229;48.856;9.088;2022-09-17T04:22:54;97642.94;;;8.18;92.85
42601;BME280;28229;48.856;9.088;2022-09-17T04:25:19;97641.31;;;8.24;92.56
42601;BME280;28229;48.856;9.088;2022-09-17T04:27:47;97633.41;;;8.30;93.40
42601;BME280;28229;48.856;9.088;2022-09-17T04:30:13;97639.63;;;8.36;93.07
42601;BME280;28229;48.856;9.088;2022-09-17T04:32:39;97643.22;;;8.42;93.21
42601;BME280;28229;48.856;9.088;2022-09-17T04:35:06;97644.81;;;8.49;91.99
42601;BME280;28229;48.856;9.088;2022-09-17T04:37:31;97656.50;;;8.53;91.35
42601;BME280;28229;48.856;9.088;2022-09-17T04:39:58;97658.91;;;8.55;90.84
42601;BME280;28229;48.856;9.088;2022-09-17T04:42:24;97661.53;;;8.55;89.88
42601;BME280;28229;48.856;9.088;2022-09-17T04:44:50;97668.03;;;8.84;89.91
42601;BME280;28229;48.856;9.088;2022-09-17T04:47:16;97675.66;;;8.86;89.24
42601;BME280;28229;48.856;9.088;2022-09-17T04:49:42;97671.59;;;8.90;88.39
42601;BME280;28229;48.856;9.088;2022-09-17T04:52:07;97671.16;;;8.93;88.00
42601;BME280;28229;48.856;9.088;2022-09-17T04:54:33;97684.91;;;8.95;87.64
42601;BME280;28229;48.856;9.088;2022-09-17T04:56:59;97684.06;;;8.94;88.69
42601;BME280;28229;48.856;9.088;2022-09-17T04:59:25;97676.00;;;8.96;87.41
42601;BME280;28229;48.856;9.088;2022-09-17T05:01:51;97677.03;;;8.95;87.34
42601;BME280;28229;48.856;9.088;2022-09-17T05:04:17;97687.06;;;8.98;87.29
42601;BME280;28229;48.856;9.088;2022-09-17T05:06:43;97688.53;;;8.94;86.95
42601;BME280;28229;48.856;9.088;2022-09-17T05:09:08;97686.16;;;8.86;86.36
42601;BME280;28229;48.856;9.088;2022-09-17T05:11:34;97683.91;;;8.89;86.42
42601;BME280;28229;48.856;9.088;2022-09-17T05:14:00;97678.50;;;8.84;86.79
42601;BME280;28229;48.856;9.088;2022-09-17T05:16:26;97683.38;;;8.81;86.73
42601;BME280;28229;48.856;9.088;2022-09-17T05:18:52;97673.13;;;8.72;86.60
42601;BME280;28229;48.856;9.088;2022-09-17T05:21:18;97680.47;;;8.57;87.89
42601;BME280;28229;48.856;9.088;2022-09-17T05:23:45;97673.03;;;8.54;87.72
42601;BME280;28229;48.856;9.088;2022-09-17T05:26:12;97668.81;;;8.53;88.13
42601;BME280;28229;48.856;9.088;2022-09-17T05:28:38;97683.19;;;8.44;88.92
42601;BME280;28229;48.856;9.088;2022-09-17T05:31:04;97677.31;;;8.42;88.81
42601;BME280;28229;48.856;9.088;2022-09-17T05:33:30;97673.91;;;8.34;89.28
42601;BME280;28229;48.856;9.088;2022-09-17T05:35:56;97685.19;;;8.42;88.98
42601;BME280;28229;48.856;9.088;2022-09-17T05:38:22;97685.59;;;8.45;88.95
42601;BME280;28229;48.856;9.088;2022-09-17T05:40:48;97684.19;;;8.36;89.46
42601;BME280;28229;48.856;9.088;2022-09-17T05:43:14;97689.59;;;8.41;88.99
42601;BME280;28229;48.856;9.088;2022-09-17T05:45:40;97676.94;;;8.31;90.15
42601;BME280;28229;48.856;9.088;2022-09-17T05:48:09;97686.59;;;8.37;89.69
42601;BME280;28229;48.856;9.088;2022-09-17T05:50:36;97692.03;;;8.43;89.71
42601;BME280;28229;48.856;9.088;2022-09-17T05:53:03;97697.25;;;8.49;89.51
42601;BME280;28229;48.856;9.088;2022-09-17T05:55:30;97700.06;;;8.54;89.15
42601;BME280;28229;48.856;9.088;2022-09-17T05:57:56;97707.91;;;8.61;89.06
42601;BME280;28229;48.856;9.088;2022-09-17T06:00:22;97705.88;;;8.63;88.41
42601;BME280;28229;48.856;9.088;2022-09-17T06:02:53;97704.84;;;8.64;89.11
42601;BME280;28229;48.856;9.088;2022-09-17T06:05:19;97708.84;;;8.73;88.93
42601;BME280;28229;48.856;9.088;2022-09-17T06:07:45;97708.41;;;8.76;88.57
42601;BME280;28229;48.856;9.088;2022-09-17T06:10:11;97718.44;;;8.86;88.13
42601;BME280;28229;48.856;9.088;2022-09-17T06:12:37;97715.28;;;8.77;87.38
42601;BME280;28229;48.856;9.088;2022-09-17T06:15:03;97721.69;;;8.82;87.18
42601;BME280;28229;48.856;9.088;2022-09-17T06:17:33;97715.00;;;8.86;86.70
42601;BME280;28229;48.856;9.088;2022-09-17T06:19:59;97717.88;;;8.77;86.99
42601;BME280;28229;48.856;9.088;2022-09-17T06:22:26;97728.13;;;8.86;86.71
42601;BME280;28229;48.856;9.088;2022-09-17T06:24:52;97723.63;;;8.93;86.49
42601;BME280;28229;48.856;9.088;2022-09-17T06:27:18;97727.31;;;8.85;87.16
42601;BME280;28229;48.856;9.088;2022-09-17T06:29:44;97730.91;;;8.91;86.58
42601;BME280;28229;48.856;9.088;2022-09-17T06:32:09;97734.75;;;8.95;85.93
42601;BME280;28229;48.856;9.088;2022-09-17T06:34:38;97739.63;;;8.85;86.18
42601;BME280;28229;48.856;9.088;2022-09-17T06:37:04;97730.91;;;8.91;86.26
42601;BME280;28229;48.856;9.088;2022-09-17T06:39:30;97740.19;;;8.93;87.79
42601;BME280;28229;48.856;9.088;2022-09-17T06:41:56;97736.38;;;8.89;88.09
42601;BME280;28229;48.856;9.088;2022-09-17T06:44:22;97742.44;;;8.90;87.32
42601;BME280;28229;48.856;9.088;2022-09-17T06:46:49;97738.53;;;8.99;86.28
42601;BME280;28229;48.856;9.088;2022-09-17T06:49:16;97743.75;;;9.06;86.72
42601;BME280;28229;48.856;9.088;2022-09-17T06:51:42;97745.69;;;9.17;89.11
42601;BME280;28229;48.856;9.088;2022-09-17T06:54:08;97743.19;;;9.29;87.91
42601;BME280;28229;48.856;9.088;2022-09-17T06:56:35;97748.69;;;9.21;87.75
42601;BME280;28229;48.856;9.088;2022-09-17T06:59:02;97756.75;;;9.26;88.06
42601;BME280;28229;48.856;9.088;2022-09-17T07:01:27;97752.84;;;9.35;87.88
42601;BME280;28229;48.856;9.088;2022-09-17T07:04:01;97761.56;;;9.29;86.75
42601;BME280;28229;48.856;9.088;2022-09-17T07:06:27;97757.00;;;9.18;87.50
42601;BME280;28229;48.856;9.088;2022-09-17T07:08:53;97767.44;;;9.24;87.36
42601;BME280;28229;48.856;9.088;2022-09-17T07:11:19;97756.38;;;9.22;87.44
42601;BME280;28229;48.856;9.088;2022-09-17T07:13:45;97757.47;;;9.08;87.94
42601;BME280;28229;48.856;9.088;2022-09-17T07:16:11;97766.78;;;9.04;89.26
42601;BME280;28229;48.856;9.088;2022-09-17T07:18:37;97770.63;;;9.01;90.15
42601;BME280;28229;48.856;9.088;2022-09-17T07:21:05;97771.66;;;9.00;90.54
42601;BME280;28229;48.856;9.088;2022-09-17T07:23:36;97775.91;;;8.94;91.69
42601;BME280;28229;48.856;9.088;2022-09-17T07:26:05;97768.84;;;8.95;91.86
42601;BME280;28229;48.856;9.088;2022-09-17T07:28:31;97767.22;;;8.94;92.43
42601;BME280;28229;48.856;9.088;2022-09-17T07:31:02;97774.34;;;8.87;93.56
42601;BME280;28229;48.856;9.088;2022-09-17T07:33:28;97769.44;;;8.97;94.31
42601;BME280;28229;48.856;9.088;2022-09-17T07:35:56;97776.16;;;8.86;94.52
42601;BME280;28229;48.856;9.088;2022-09-17T07:38:22;97779.00;;;8.85;95.62
42601;BME280;28229;48.856;9.088;2022-09-17T07:41:00;97776.50;;;8.96;95.88
42601;BME280;28229;48.856;9.088;2022-09-17T07:43:30;97785.00;;;8.92;95.15
42601;BME280;28229;48.856;9.088;2022-09-17T07:45:58;97782.94;;;9.01;93.64
42601;BME280;28229;48.856;9.088;2022-09-17T07:48:24;97784.50;;;9.08;94.15
42601;BME280;28229;48.856;9.088;2022-09-17T07:50:50;97786.72;;;9.11;95.20
42601;BME280;28229;48.856;9.088;2022-09-17T07:53:16;97781.19;;;9.20;93.92
42601;BME280;28229;48.856;9.088;2022-09-17T07:55:50;97790.09;;;9.19;93.01
42601;BME280;28229;48.856;9.088;2022-09-17T07:58:16;97789.06;;;9.20;93.20
42601;BME280;28229;48.856;9.088;2022-09-17T08:00:43;97795.69;;;9.29;92.38
42601;BME280;28229;48.856;9.088;2022-09-17T08:03:08;97798.91;;;9.31;92.49
42601;BME280;28229;48.856;9.088;2022-09-17T08:05:34;97800.50;;;9.32;92.26
42601;BME280;28229;48.856;9.088;2022-09-17T08:08:00;97804.16;;;9.31;91.82
42601;BME280;28229;48.856;9.088;2022-09-17T08:10:26;97793.66;;;9.31;92.68
42601;BME280;28229;48.856;9.088;2022-09-17T08:13:01;97808.56;;;9.37;91.21
42601;BME280;28229;48.856;9.088;2022-09-17T08:15:27;97809.31;;;9.44;91.27
42601;BME280;28229;48.856;9.088;2022-09-17T08:17:53;97811.31;;;9.49;91.84
42601;BME280;28229;48.856;9.088;2022-09-17T08:20:19;97813.03;;;9.62;91.01
42601;BME280;28229;48.856;9.088;2022-09-17T08:22:45;97807.94;;;9.67;92.61
42601;BME280;28229;48.856;9.088;2022-09-17T08:25:11;97810.31;;;9.75;91.31
42601;BME280;28229;48.856;9.088;2022-09-17T08:27:37;97811.06;;;9.82;89.42
42601;BME280;28229;48.856;9.088;2022-09-17T08:30:06;97805.28;;;9.74;88.46
42601;BME280;28229;48.856;9.088;2022-09-17T08:32:33;97808.28;;;9.77;90.46
42601;BME280;28229;48.856;9.088;2022-09-17T08:34:58;97805.72;;;9.89;88.01
42601;BME280;28229;48.856;9.088;2022-09-17T08:37:26;97805.25;;;9.99;86.42
42601;BME280;28229;48.856;9.088;2022-09-17T08:39:54;97802.34;;;10.07;87.20
42601;BME280;28229;48.856;9.088;2022-09-17T08:42:32;97801.06;;;10.16;86.67
42601;BME280;28229;48.856;9.088;2022-09-17T08:45:03;97798.75;;;10.45;87.16
42601;BME280;28229;48.856;9.088;2022-09-17T08:47:41;97805.91;;;10.56;85.06
42601;BME280;28229;48.856;9.088;2022-09-17T08:50:16;97808.31;;;10.58;83.83
42601;BME280;28229;48.856;9.088;2022-09-17T08:52:58;97805.00;;;10.81;83.49
42601;BME280;28229;48.856;9.088;2022-09-17T08:55:39;97811.72;;;10.95;81.65
42601;BME280;28229;48.856;9.088;2022-09-17T09:01:10;97807.72;;;11.23;81.39
42601;BME280;28229;48.856;9.088;2022-09-17T09:03:56;97805.31;;;11.33;79.24
42601;BME280;28229;48.856;9.088;2022-09-17T09:06:49;97809.78;;;11.33;78.38
42601;BME280;28229;48.856;9.088;2022-09-17T09:09:19;97818.47;;;11.21;79.74
42601;BME280;28229;48.856;9.088;2022-09-17T09:11:49;97814.78;;;11.22;79.92
42601;BME280;28229;48.856;9.088;2022-09-17T09:14:22;97809.63;;;11.16;79.50
42601;BME280;28229;48.856;9.088;2022-09-17T09:16:51;97811.56;;;11.20;77.23
42601;BME280;28229;48.856;9.088;2022-09-17T09:19:22;97816.63;;;11.22;77.67
42601;BME280;28229;48.856;9.088;2022-09-17T09:22:00;97826.72;;;11.25;79.42
42601;BME280;28229;48.856;9.088;2022-09-17T09:25:02;97807.06;;;11.51;78.09
42601;BME280;28229;48.856;9.088;2022-09-17T09:31:05;97817.31;;;11.71;75.42
42601;BME280;28229;48.856;9.088;2022-09-17T09:33:38;97812.03;;;11.83;76.19
42601;BME280;28229;48.856;9.088;2022-09-17T09:36:14;97810.81;;;11.86;75.08
42601;BME280;28229;48.856;9.088;2022-09-17T09:41:15;97817.78;;;11.68;74.03
42601;BME280;28229;48.856;9.088;2022-09-17T09:43:45;97816.06;;;11.74;73.62
42601;BME280;28229;48.856;9.088;2022-09-17T09:49:25;97811.94;;;11.90;73.76
42601;BME280;28229;48.856;9.088;2022-09-17T09:57:54;97819.78;;;12.20;72.89
42601;BME280;28229;48.856;9.088;2022-09-17T10:02:59;97812.53;;;12.15;71.34
42601;BME280;28229;48.856;9.088;2022-09-17T10:05:26;97815.41;;;12.26;69.72
42601;BME280;28229;48.856;9.088;2022-09-17T10:07:52;97811.41;;;12.23;70.15
42601;BME280;28229;48.856;9.088;2022-09-17T10:10:18;97809.53;;;12.47;71.00
42601;BME280;28229;48.856;9.088;2022-09-17T10:13:05;97805.81;;;12.72;69.45
42601;BME280;28229;48.856;9.088;2022-09-17T10:15:32;97805.72;;;12.95;69.52
42601;BME280;28229;48.856;9.088;2022-09-17T10:18:24;97812.19;;;13.17;68.94
42601;BME280;28229;48.856;9.088;2022-09-17T10:20:58;97814.03;;;13.45;67.05
42601;BME280;28229;48.856;9.088;2022-09-17T10:23:27;97801.66;;;13.62;64.55
42601;BME280;28229;48.856;9.088;2022-09-17T10:26:20;97801.19;;;13.65;64.87
42601;BME280;28229;48.856;9.088;2022-09-17T10:29:13;97803.34;;;13.85;63.59
42601;BME280;28229;48.856;9.088;2022-09-17T10:34:22;97803.00;;;14.38;62.85
42601;BME280;28229;48.856;9.088;2022-09-17T10:36:53;97808.53;;;14.75;62.19
42601;BME280;28229;48.856;9.088;2022-09-17T10:39:37;97800.91;;;15.06;59.86
42601;BME280;28229;48.856;9.088;2022-09-17T10:42:14;97791.31;;;15.27;58.64
42601;BME280;28229;48.856;9.088;2022-09-17T10:44:56;97794.63;;;15.12;55.55
42601;BME280;28229;48.856;9.088;2022-09-17T10:47:25;97795.13;;;15.09;55.34
42601;BME280;28229;48.856;9.088;2022-09-17T10:49:56;97794.91;;;15.43;56.14
42601;BME280;28229;48.856;9.088;2022-09-17T10:52:36;97782.88;;;15.63;53.68
42601;BME280;28229;48.856;9.088;2022-09-17T10:55:28;97774.53;;;15.49;53.73
42601;BME280;28229;48.856;9.088;2022-09-17T11:11:15;97775.88;;;16.26;51.63
42601;BME280;28229;48.856;9.088;2022-09-17T11:13:50;97784.31;;;16.18;51.78
42601;BME280;28229;48.856;9.088;2022-09-17T11:24:55;97763.22;;;16.39;50.83
42601;BME280;28229;48.856;9.088;2022-09-17T11:27:40;97773.66;;;16.61;48.63
42601;BME280;28229;48.856;9.088;2022-09-17T11:30:21;97771.81;;;16.71;51.17
42601;BME280;28229;48.856;9.088;2022-09-17T11:33:11;97767.88;;;16.79;48.21
42601;BME280;28229;48.856;9.088;2022-09-17T11:35:47;97764.47;;;16.89;48.26
42601;BME280;28229;48.856;9.088;2022-09-17T11:38:19;97766.63;;;17.02;49.72
42601;BME280;28229;48.856;9.088;2022-09-17T11:41:01;97767.13;;;16.94;50.63
42601;BME280;28229;48.856;9.088;2022-09-17T11:43:32;97758.63;;;16.87;49.67
42601;BME280;28229;48.856;9.088;2022-09-17T11:46:02;97752.19;;;16.72;49.27
42601;BME280;28229;48.856;9.088;2022-09-17T12:01:48;97768.97;;;15.50;54.94
42601;BME280;28229;48.856;9.088;2022-09-17T12:04:41;97766.56;;;15.16;57.99
42601;BME280;28229;48.856;9.088;2022-09-17T12:10:02;97751.34;;;14.79;61.34
42601;BME280;28229;48.856;9.088;2022-09-17T12:12:37;97757.91;;;14.72;62.48
42601;BME280;28229;48.856;9.088;2022-09-17T12:15:15;97762.03;;;14.01;64.36
42601;BME280;28229;48.856;9.088;2022-09-17T12:17:54;97768.03;;;13.97;64.30
42601;BME280;28229;48.856;9.088;2022-09-17T12:20:31;97761.50;;;13.82;63.33
42601;BME280;28229;48.856;9.088;2022-09-17T12:23:02;97762.53;;;13.98;64.33
42601;BME280;28229;48.856;9.088;2022-09-17T12:25:55;97746.88;;;14.14;64.26
42601;BME280;28229;48.856;9.088;2022-09-17T12:31:26;97756.94;;;14.17;60.62
42601;BME280;28229;48.856;9.088;2022-09-17T12:48:46;97765.28;;;13.24;70.19
42601;BME280;28229;48.856;9.088;2022-09-17T13:00:11;97778.81;;;12.82;68.88
42601;BME280;28229;48.856;9.088;2022-09-17T13:10:59;97772.59;;;12.47;73.35
42601;BME280;28229;48.856;9.088;2022-09-17T13:13:55;97776.38;;;12.51;72.21
42601;BME280;28229;48.856;9.088;2022-09-17T13:24:18;97787.81;;;12.98;71.69
42601;BME280;28229;48.856;9.088;2022-09-17T13:26:45;97775.03;;;12.77;72.17
42601;BME280;28229;48.856;9.088;2022-09-17T13:29:12;97774.59;;;12.98;70.34
42601;BME280;28229;48.856;9.088;2022-09-17T13:31:57;97778.41;;;13.02;71.30
42601;BME280;28229;48.856;9.088;2022-09-17T13:34:30;97768.44;;;12.92;70.35
42601;BME280;28229;48.856;9.088;2022-09-17T13:36:58;97762.25;;;13.15;71.28
42601;BME280;28229;48.856;9.088;2022-09-17T13:39:35;97773.78;;;13.09;70.46
42601;BME280;28229;48.856;9.088;2022-09-17T13:42:04;97765.53;;;13.05;70.29
42601;BME280;28229;48.856;9.088;2022-09-17T13:44:36;97768.50;;;13.26;72.29
42601;BME280;28229;48.856;9.088;2022-09-17T13:47:10;97773.19;;;13.36;68.30
42601;BME280;28229;48.856;9.088;2022-09-17T13:50:08;97762.81;;;13.46;68.51
42601;BME280;28229;48.856;9.088;2022-09-17T13:52:36;97766.94;;;13.76;67.88
42601;BME280;28229;48.856;9.088;2022-09-17T13:55:05;97762.38;;;13.88;66.63
42601;BME280;28229;48.856;9.088;2022-09-17T13:57:33;97753.72;;;13.76;65.30
42601;BME280;28229;48.856;9.088;2022-09-17T14:05:57;97758.63;;;13.84;64.97
42601;BME280;28229;48.856;9.088;2022-09-17T14:13:54;97756.25;;;14.65;61.42
42601;BME280;28229;48.856;9.088;2022-09-17T14:16:31;97749.97;;;14.99;60.61
42601;BME280;28229;48.856;9.088;2022-09-17T14:21:42;97743.88;;;15.63;57.53
42601;BME280;28229;48.856;9.088;2022-09-17T14:24:22;97739.94;;;15.66;57.23
42601;BME280;28229;48.856;9.088;2022-09-17T14:29:47;97746.38;;;16.17;55.95
42601;BME280;28229;48.856;9.088;2022-09-17T14:35:19;97739.59;;;15.89;55.35
42601;BME280;28229;48.856;9.088;2022-09-17T14:40:51;97737.66;;;16.22;55.00
42601;BME280;28229;48.856;9.088;2022-09-17T14:43:53;97742.47;;;16.35;54.90
42601;BME280;28229;48.856;9.088;2022-09-17T14:46:23;97744.69;;;16.59;54.83
42601;BME280;28229;48.856;9.088;2022-09-17T14:48:50;97753.75;;;16.63;54.97
42601;BME280;28229;48.856;9.088;2022-09-17T14:53:45;97744.09;;;16.47;54.22
42601;BME280;28229;48.856;9.088;2022-09-17T14:56:20;97747.34;;;16.01;54.15
42601;BME280;28229;48.856;9.088;2022-09-17T14:58:50;97743.91;;;16.06;55.22
42601;BME280;28229;48.856;9.088;2022-09-17T15:01:23;97752.47;;;16.18;55.42
42601;BME280;28229;48.856;9.088;2022-09-17T15:03:49;97749.19;;;16.01;55.43
42601;BME280;28229;48.856;9.088;2022-09-17T15:06:32;97755.34;;;15.69;55.75
42601;BME280;28229;48.856;9.088;2022-09-17T15:08:58;97747.56;;;15.57;57.61
42601;BME280;28229;48.856;9.088;2022-09-17T15:11:26;97741.50;;;15.29;57.91
42601;BME280;28229;48.856;9.088;2022-09-17T15:13:52;97740.31;;;15.15;58.41
42601;BME280;28229;48.856;9.088;2022-09-17T15:16:26;97749.41;;;14.70;59.84
42601;BME280;28229;48.856;9.088;2022-09-17T15:19:00;97753.78;;;14.59;59.94
42601;BME280;28229;48.856;9.088;2022-09-17T15:21:33;97743.97;;;14.37;60.49
42601;BME280;28229;48.856;9.088;2022-09-17T15:24:32;97745.41;;;14.23;59.62
42601;BME280;28229;48.856;9.088;2022-09-17T15:27:15;97754.69;;;13.86;60.89
42601;BME280;28229;48.856;9.088;2022-09-17T15:29:53;97753.97;;;13.91;62.09
42601;BME280;28229;48.856;9.088;2022-09-17T15:32:21;97749.22;;;13.93;62.17
42601;BME280;28229;48.856;9.088;2022-09-17T15:40:27;97750.69;;;13.84;62.05
42601;BME280;28229;48.856;9.088;2022-09-17T15:45:31;97750.72;;;14.06;61.74
42601;BME280;28229;48.856;9.088;2022-09-17T15:48:02;97739.66;;;14.31;62.15
42601;BME280;28229;48.856;9.088;2022-09-17T15:50:30;97734.38;;;14.53;61.03
42601;BME280;28229;48.856;9.088;2022-09-17T15:55:35;97732.72;;;14.69;59.75
42601;BME280;28229;48.856;9.088;2022-09-17T15:58:04;97731.59;;;14.65;59.27
42601;BME280;28229;48.856;9.088;2022-09-17T16:00:30;97737.91;;;14.59;59.52
42601;BME280;28229;48.856;9.088;2022-09-17T16:02:57;97733.00;;;14.51;58.44
42601;BME280;28229;48.856;9.088;2022-09-17T16:07:48;97752.91;;;14.53;57.29
42601;BME280;28229;48.856;9.088;2022-09-17T16:10:14;97749.97;;;14.50;58.46
42601;BME280;28229;48.856;9.088;2022-09-17T16:12:40;97748.03;;;14.45;58.55
42601;BME280;28229;48.856;9.088;2022-09-17T16:15:07;97753.25;;;14.40;58.20
42601;BME280;28229;48.856;9.088;2022-09-17T16:17:42;97755.50;;;14.48;58.15
42601;BME280;28229;48.856;9.088;2022-09-17T16:20:16;97760.28;;;14.29;59.76